createdAt,value
2016-02-27T00:00:32.074Z,14.39
2016-02-27T00:01:32.094Z,13.9
2016-02-27T00:02:32.095Z,13.81
2016-02-27T00:03:32.082Z,14.29
2016-02-27T00:04:32.086Z,14.29
2016-02-27T00:05:32.104Z,14.29
2016-02-27T00:06:32.121Z,14.29
2016-02-27T00:07:32.109Z,14.29
2016-02-27T00:08:32.112Z,14.29
2016-02-27T00:09:32.130Z,14.29
2016-02-27T00:10:32.117Z,14.1
2016-02-27T00:11:32.120Z,13.91
2016-02-27T00:12:32.137Z,14.39
2016-02-27T00:13:32.140Z,14.39
2016-02-27T00:14:32.159Z,14.29
2016-02-27T00:16:08.648Z,14.1
2016-02-27T00:16:32.164Z,14.29
2016-02-27T00:17:32.151Z,14.29
2016-02-27T00:18:32.217Z,14.01
2016-02-27T00:19:32.173Z,13.9
2016-02-27T00:20:32.190Z,14.29
2016-02-27T00:21:32.193Z,14.19
2016-02-27T00:22:32.196Z,14.2
2016-02-27T00:23:32.198Z,13.81
2016-02-27T00:24:32.217Z,13.81
2016-02-27T00:25:32.203Z,14.2
2016-02-27T00:26:32.222Z,14.39
2016-02-27T00:27:32.209Z,13.91
2016-02-27T00:28:32.211Z,14.1
2016-02-27T00:29:32.230Z,14.59
2016-02-27T00:30:32.233Z,14.49
2016-02-27T00:31:32.235Z,14.2
2016-02-27T00:32:32.239Z,14.1
2016-02-27T00:33:32.257Z,14.39
2016-02-27T00:34:32.260Z,14.19
2016-02-27T00:35:32.263Z,14.09
2016-02-27T00:36:32.266Z,14
2016-02-27T00:37:32.299Z,13.81
2016-02-27T00:38:32.302Z,14
2016-02-27T00:39:32.288Z,14.1
2016-02-27T00:40:32.291Z,14.29
2016-02-27T00:41:32.294Z,14.19
2016-02-27T00:42:32.296Z,14.19
2016-02-27T00:43:32.315Z,13.91
2016-02-27T00:44:32.318Z,14.01
2016-02-27T00:48:11.812Z,13.9
2016-02-27T00:49:11.801Z,14
2016-02-27T00:50:11.834Z,14.01
2016-02-27T00:51:11.820Z,14
2016-02-27T00:52:11.839Z,13.9
2016-02-27T00:53:11.842Z,14
2016-02-27T00:54:11.845Z,13.71
2016-02-27T00:55:11.847Z,14
2016-02-27T00:56:11.881Z,13.81
2016-02-27T00:57:11.853Z,13.9
2016-02-27T00:58:11.871Z,13.91
2016-02-27T00:59:11.858Z,13.71
2016-02-27T01:00:11.877Z,13.71
2016-02-27T01:01:11.879Z,13.51
2016-02-27T01:02:11.882Z,13.71
2016-02-27T01:03:11.885Z,13.81
2016-02-27T01:04:11.903Z,13.71
2016-02-27T01:05:11.905Z,13.91
2016-02-27T01:06:11.908Z,13.91
2016-02-27T01:07:11.911Z,13.9
2016-02-27T01:08:11.914Z,14.1
2016-02-27T01:09:11.932Z,14.1
2016-02-27T01:10:11.935Z,13.91
2016-02-27T01:11:11.938Z,13.81
2016-02-27T01:12:11.940Z,14.2
2016-02-27T01:13:11.943Z,13.71
2016-02-27T01:14:11.945Z,13.62
2016-02-27T01:15:11.948Z,13.62
2016-02-27T01:16:11.966Z,13.43
2016-02-27T01:17:11.954Z,13.62
2016-02-27T01:18:11.971Z,13.33
2016-02-27T01:19:11.973Z,13.33
2016-02-27T01:20:12.009Z,13.52
2016-02-27T01:21:11.980Z,13.62
2016-02-27T01:22:11.982Z,13.52
2016-02-27T01:23:11.985Z,13.71
2016-02-27T01:24:12.004Z,13.81
2016-02-27T01:25:12.006Z,13.62
2016-02-27T01:26:12.009Z,13.52
2016-02-27T01:27:12.027Z,14.1
2016-02-27T01:28:12.030Z,13.62
2016-02-27T01:29:12.032Z,13.71
2016-02-27T01:30:12.035Z,13.71
2016-02-27T01:31:12.039Z,13.81
2016-02-27T01:32:12.041Z,13.62
2016-02-27T01:33:12.058Z,13.62
2016-02-27T01:34:12.062Z,13.71
2016-02-27T01:35:12.049Z,13.71
2016-02-27T01:36:12.067Z,13.71
2016-02-27T01:37:12.069Z,13.33
2016-02-27T01:38:12.072Z,13.62
2016-02-27T01:39:12.091Z,13.52
2016-02-27T01:40:12.093Z,13.71
2016-02-27T01:41:12.096Z,13.62
2016-02-27T01:42:12.099Z,13.71
2016-02-27T01:43:12.101Z,13.62
2016-02-27T01:44:12.104Z,13.62
2016-02-27T01:45:12.123Z,13.71
2016-02-27T01:48:45.352Z,14.1
2016-02-27T01:49:45.354Z,14.1
2016-02-27T01:50:45.357Z,13.9
2016-02-27T01:51:45.375Z,13.71
2016-02-27T01:52:45.378Z,13.71
2016-02-27T01:53:45.381Z,13.71
2016-02-27T01:54:45.383Z,13.71
2016-02-27T01:55:45.434Z,14.1
2016-02-27T01:56:45.389Z,13.71
2016-02-27T01:57:45.408Z,13.71
2016-02-27T01:58:45.426Z,13.81
2016-02-27T01:59:45.413Z,13.62
2016-02-27T02:00:45.416Z,13.81
2016-02-27T02:01:45.418Z,13.71
2016-02-27T02:02:45.436Z,13.43
2016-02-27T02:03:45.424Z,13.52
2016-02-27T02:04:45.442Z,13.61
2016-02-27T02:05:45.445Z,13.61
2016-02-27T02:06:45.447Z,13.42
2016-02-27T02:07:45.450Z,13.62
2016-02-27T02:08:45.452Z,13.62
2016-02-27T02:09:45.471Z,13.62
2016-02-27T02:10:45.474Z,13.91
2016-02-27T02:11:45.476Z,13.71
2016-02-27T02:12:45.479Z,13.71
2016-02-27T02:13:45.481Z,13.61
2016-02-27T02:14:45.485Z,13.71
2016-02-27T02:17:00.771Z,13.42
2016-02-27T02:18:00.774Z,13.52
2016-02-27T02:19:00.776Z,13.62
2016-02-27T02:20:00.779Z,13.61
2016-02-27T02:21:00.781Z,13.71
2016-02-27T02:22:00.800Z,13.71
2016-02-27T02:23:00.804Z,13.51
2016-02-27T02:24:00.806Z,13.71
2016-02-27T02:25:00.809Z,13.71
2016-02-27T02:26:00.826Z,13.51
2016-02-27T02:27:00.829Z,13.51
2016-02-27T02:28:00.832Z,13.52
2016-02-27T02:29:00.834Z,13.81
2016-02-27T02:30:00.837Z,13.61
2016-02-27T02:31:00.840Z,13.61
2016-02-27T02:32:00.842Z,13.61
2016-02-27T02:33:00.861Z,13.52
2016-02-27T02:34:00.864Z,13.71
2016-02-27T02:35:00.851Z,13.51
2016-02-27T02:36:00.869Z,13.51
2016-02-27T02:37:00.888Z,13.51
2016-02-27T02:38:00.874Z,13.61
2016-02-27T02:39:00.893Z,13.71
2016-02-27T02:40:00.910Z,13.62
2016-02-27T02:41:00.898Z,13.71
2016-02-27T02:42:00.902Z,13.23
2016-02-27T02:43:00.904Z,13.23
2016-02-27T02:44:00.907Z,13.71
2016-02-27T02:45:00.909Z,13.42
2016-02-27T02:48:07.760Z,13.61
2016-02-27T02:49:07.748Z,13.61
2016-02-27T02:50:07.766Z,13.71
2016-02-27T02:51:07.769Z,13.51
2016-02-27T02:52:07.771Z,13.51
2016-02-27T02:53:07.774Z,13.51
2016-02-27T02:54:07.793Z,13.23
2016-02-27T02:55:07.811Z,13.51
2016-02-27T02:56:07.798Z,13.13
2016-02-27T02:57:07.800Z,13.51
2016-02-27T02:58:07.803Z,13.51
2016-02-27T02:59:07.806Z,13.71
2016-02-27T03:00:07.808Z,13.23
2016-02-27T03:01:07.812Z,13.23
2016-02-27T03:02:07.830Z,13.61
2016-02-27T03:03:07.833Z,13.61
2016-02-27T03:04:07.835Z,13.61
2016-02-27T03:05:07.838Z,13.61
2016-02-27T03:06:07.841Z,13.71
2016-02-27T03:07:07.858Z,13.51
2016-02-27T03:08:07.861Z,13.61
2016-02-27T03:09:07.849Z,13.61
2016-02-27T03:10:07.867Z,13.32
2016-02-27T03:11:07.869Z,13.61
2016-02-27T03:12:07.872Z,13.71
2016-02-27T03:13:07.875Z,13.61
2016-02-27T03:14:07.893Z,13.81
2016-02-27T03:15:07.896Z,13.61
2016-02-27T03:16:54.511Z,13.61
2016-02-27T03:17:23.199Z,13.61
2016-02-27T03:18:23.201Z,13.61
2016-02-27T03:19:23.235Z,13.52
2016-02-27T03:20:23.206Z,13.61
2016-02-27T03:21:23.224Z,13.71
2016-02-27T03:22:23.212Z,13.9
2016-02-27T03:23:23.229Z,13.61
2016-02-27T03:24:23.232Z,13.71
2016-02-27T03:25:23.235Z,13.71
2016-02-27T03:26:23.238Z,13.23
2016-02-27T03:27:23.240Z,13.61
2016-02-27T03:28:23.243Z,13.32
2016-02-27T03:29:23.262Z,13.23
2016-02-27T03:30:23.264Z,13.61
2016-02-27T03:31:23.267Z,13.51
2016-02-27T03:32:23.270Z,13.61
2016-02-27T03:33:23.272Z,13.61
2016-02-27T03:34:23.275Z,13.13
2016-02-27T03:35:23.277Z,13.9
2016-02-27T03:36:23.297Z,13.71
2016-02-27T03:37:23.299Z,13.9
2016-02-27T03:38:23.302Z,13.9
2016-02-27T03:39:23.305Z,13.71
2016-02-27T03:40:23.338Z,13.32
2016-02-27T03:41:23.310Z,14
2016-02-27T03:42:23.312Z,13.51
2016-02-27T03:43:23.330Z,13.71
2016-02-27T03:44:23.333Z,13.61
2016-02-27T03:48:32.813Z,13.61
2016-02-27T03:49:12.597Z,13.51
2016-02-27T03:50:12.599Z,13.13
2016-02-27T03:51:12.601Z,13.42
2016-02-27T03:52:12.621Z,13.61
2016-02-27T03:53:12.623Z,13.32
2016-02-27T03:54:12.610Z,13.61
2016-02-27T03:55:12.629Z,13.71
2016-02-27T03:56:12.631Z,13.61
2016-02-27T03:57:12.634Z,13.61
2016-02-27T03:58:12.636Z,13.51
2016-02-27T03:59:12.639Z,13.32
2016-02-27T04:00:12.657Z,13.51
2016-02-27T04:01:12.660Z,13.23
2016-02-27T04:02:12.570Z,13.51
2016-02-27T04:03:12.665Z,13.71
2016-02-27T04:04:12.668Z,13.71
2016-02-27T04:05:12.670Z,13.81
2016-02-27T04:06:12.673Z,13.51
2016-02-27T04:07:12.675Z,13.61
2016-02-27T04:08:12.695Z,13.23
2016-02-27T04:09:12.698Z,13.51
2016-02-27T04:10:12.700Z,13.32
2016-02-27T04:11:12.703Z,13.71
2016-02-27T04:12:12.706Z,13.81
2016-02-27T04:13:12.708Z,13.61
2016-02-27T04:14:12.711Z,13.71
2016-02-27T04:16:32.888Z,13.51
2016-02-27T04:17:32.921Z,13.9
2016-02-27T04:18:32.909Z,13.61
2016-02-27T04:19:32.913Z,13.61
2016-02-27T04:20:32.915Z,13.32
2016-02-27T04:21:32.933Z,13.71
2016-02-27T04:22:32.920Z,13.61
2016-02-27T04:23:32.938Z,13.32
2016-02-27T04:24:32.940Z,13.61
2016-02-27T04:25:32.929Z,13.51
2016-02-27T04:26:32.931Z,13.71
2016-02-27T04:27:32.949Z,13.71
2016-02-27T04:28:32.952Z,13.81
2016-02-27T04:29:32.970Z,13.32
2016-02-27T04:30:32.961Z,13.9
2016-02-27T04:31:32.951Z,13.32
2016-02-27T04:32:32.940Z,13.51
2016-02-27T04:33:32.930Z,13.51
2016-02-27T04:34:32.934Z,13.32
2016-02-27T04:35:32.917Z,13.81
2016-02-27T04:36:32.914Z,13.13
2016-02-27T04:37:32.912Z,13.71
2016-02-27T04:38:32.910Z,13.32
2016-02-27T04:39:32.907Z,13.71
2016-02-27T04:40:32.923Z,13.71
2016-02-27T04:41:32.924Z,13.61
2016-02-27T04:42:32.925Z,13.81
2016-02-27T04:43:32.927Z,13.42
2016-02-27T04:44:32.944Z,13.71
2016-02-27T04:48:33.139Z,13.61
2016-02-27T04:49:22.187Z,13.51
2016-02-27T04:50:22.189Z,13.71
2016-02-27T04:51:22.192Z,13.51
2016-02-27T04:52:22.226Z,13.51
2016-02-27T04:53:22.213Z,13.81
2016-02-27T04:54:22.215Z,13.81
2016-02-27T04:55:22.233Z,13.61
2016-02-27T04:56:22.220Z,13.61
2016-02-27T04:57:22.223Z,13.61
2016-02-27T04:58:22.084Z,13.9
2016-02-27T04:59:22.244Z,13.81
2016-02-27T05:00:22.246Z,13.71
2016-02-27T05:01:22.264Z,13.23
2016-02-27T05:02:22.253Z,13.61
2016-02-27T05:03:22.255Z,13.32
2016-02-27T05:04:22.273Z,13.13
2016-02-27T05:05:22.275Z,13.51
2016-02-27T05:06:22.278Z,13.23
2016-02-27T05:07:22.280Z,12.93
2016-02-27T05:08:22.299Z,13.51
2016-02-27T05:09:22.302Z,13.51
2016-02-27T05:10:22.305Z,13.13
2016-02-27T05:11:22.308Z,13.71
2016-02-27T05:12:22.310Z,13.51
2016-02-27T05:13:22.313Z,13.23
2016-02-27T05:14:22.331Z,12.93
2016-02-27T05:15:33.568Z,13.71
2016-02-27T05:16:22.337Z,13.61
2016-02-27T05:17:22.339Z,13.51
2016-02-27T05:18:22.343Z,13.32
2016-02-27T05:19:22.345Z,13.13
2016-02-27T05:20:22.348Z,13.13
2016-02-27T05:21:22.350Z,12.93
2016-02-27T05:22:22.353Z,13.13
2016-02-27T05:23:22.370Z,13.13
2016-02-27T05:24:22.373Z,13.03
2016-02-27T05:25:22.376Z,13.13
2016-02-27T05:26:22.379Z,13.13
2016-02-27T05:27:22.382Z,13.32
2016-02-27T05:28:22.384Z,13.32
2016-02-27T05:29:22.387Z,13.13
2016-02-27T05:30:22.390Z,13.13
2016-02-27T05:31:22.392Z,13.71
2016-02-27T05:32:22.458Z,13.13
2016-02-27T05:33:22.413Z,13.13
2016-02-27T05:34:22.417Z,13.32
2016-02-27T05:35:22.419Z,13.32
2016-02-27T05:36:22.422Z,13.32
2016-02-27T05:37:22.424Z,13.13
2016-02-27T05:38:22.442Z,13.32
2016-02-27T05:39:22.444Z,13.03
2016-02-27T05:40:22.447Z,13.61
2016-02-27T05:41:22.450Z,13.32
2016-02-27T05:42:22.453Z,13.13
2016-02-27T05:43:22.456Z,13.13
2016-02-27T05:44:22.458Z,13.23
2016-02-27T05:47:29.310Z,13.23
2016-02-27T05:48:29.313Z,13.23
2016-02-27T05:49:29.315Z,13.23
2016-02-27T05:50:29.319Z,13.23
2016-02-27T05:51:29.337Z,13.42
2016-02-27T05:52:29.340Z,13.03
2016-02-27T05:53:29.342Z,13.13
2016-02-27T05:54:29.345Z,13.42
2016-02-27T05:55:29.348Z,13.51
2016-02-27T05:56:29.350Z,13.13
2016-02-27T05:57:29.353Z,13.32
2016-02-27T05:58:29.356Z,13.42
2016-02-27T05:59:29.359Z,13.23
2016-02-27T06:00:29.361Z,13.23
2016-02-27T06:01:29.379Z,13.42
2016-02-27T06:02:29.382Z,13.13
2016-02-27T06:03:29.400Z,13.23
2016-02-27T06:04:29.387Z,13.23
2016-02-27T06:05:29.390Z,13.13
2016-02-27T06:06:29.392Z,13.13
2016-02-27T06:07:29.395Z,13.23
2016-02-27T06:08:29.413Z,13.32
2016-02-27T06:09:29.417Z,13.32
2016-02-27T06:10:29.435Z,13.32
2016-02-27T06:11:29.422Z,13.03
2016-02-27T06:12:29.424Z,13.32
2016-02-27T06:13:29.427Z,13.23
2016-02-27T06:14:29.430Z,13.32
2016-02-27T06:15:29.448Z,13.23
2016-02-27T06:16:29.451Z,13.23
2016-02-27T06:17:29.454Z,13.23
2016-02-27T06:18:29.457Z,13.32
2016-02-27T06:19:29.459Z,13.13
2016-02-27T06:20:29.509Z,13.13
2016-02-27T06:21:29.465Z,13.13
2016-02-27T06:22:29.467Z,13.13
2016-02-27T06:23:29.485Z,13.13
2016-02-27T06:24:29.487Z,13.42
2016-02-27T06:25:29.491Z,13.42
2016-02-27T06:26:29.509Z,13.23
2016-02-27T06:27:29.496Z,13.23
2016-02-27T06:28:29.499Z,13.42
2016-02-27T06:29:29.517Z,13.42
2016-02-27T06:30:29.520Z,13.61
2016-02-27T06:31:29.522Z,13.33
2016-02-27T06:32:29.525Z,13.42
2016-02-27T06:33:29.528Z,13.23
2016-02-27T06:34:29.531Z,13.03
2016-02-27T06:35:29.533Z,13.42
2016-02-27T06:36:29.552Z,13.23
2016-02-27T06:37:29.555Z,13.23
2016-02-27T06:38:29.557Z,13.32
2016-02-27T06:39:29.560Z,13.43
2016-02-27T06:40:29.577Z,13.13
2016-02-27T06:41:29.581Z,13.13
2016-02-27T06:42:29.583Z,13.23
2016-02-27T06:43:29.585Z,13.13
2016-02-27T06:44:29.588Z,13.43
2016-02-27T06:47:47.518Z,13.13
2016-02-27T06:48:47.521Z,13.23
2016-02-27T06:49:47.524Z,12.93
2016-02-27T06:50:47.543Z,13.03
2016-02-27T06:51:47.546Z,12.84
2016-02-27T06:52:47.548Z,13.03
2016-02-27T06:53:47.551Z,12.94
2016-02-27T06:54:47.554Z,13.13
2016-02-27T06:55:47.571Z,13.04
2016-02-27T06:56:47.573Z,13.04
2016-02-27T06:57:47.576Z,12.93
2016-02-27T06:58:47.579Z,13.33
2016-02-27T06:59:47.581Z,13.13
2016-02-27T07:00:47.632Z,13.23
2016-02-27T07:01:47.587Z,13.13
2016-02-27T07:02:47.590Z,13.13
2016-02-27T07:03:47.609Z,13.23
2016-02-27T07:04:47.611Z,13.03
2016-02-27T07:05:47.614Z,13.42
2016-02-27T07:06:47.616Z,13.32
2016-02-27T07:07:47.635Z,13.13
2016-02-27T07:08:47.639Z,13.03
2016-02-27T07:09:47.625Z,12.93
2016-02-27T07:10:47.628Z,13.23
2016-02-27T07:11:47.646Z,12.93
2016-02-27T07:12:47.649Z,13.23
2016-02-27T07:13:47.651Z,13.13
2016-02-27T07:14:47.654Z,13.13
2016-02-27T07:17:23.178Z,13.13
2016-02-27T07:18:23.180Z,13.23
2016-02-27T07:19:23.183Z,13.32
2016-02-27T07:20:23.185Z,13.13
2016-02-27T07:21:23.204Z,13.32
2016-02-27T07:22:23.206Z,13.13
2016-02-27T07:23:23.209Z,13.23
2016-02-27T07:24:23.213Z,13.13
2016-02-27T07:25:23.215Z,13.23
2016-02-27T07:26:23.218Z,13.13
2016-02-27T07:27:23.220Z,13.23
2016-02-27T07:28:23.223Z,13.23
2016-02-27T07:29:23.240Z,13.13
2016-02-27T07:30:23.243Z,12.55
2016-02-27T07:31:23.246Z,12.65
2016-02-27T07:32:23.249Z,12.27
2016-02-27T07:33:23.252Z,12.17
2016-02-27T07:34:23.270Z,12.08
2016-02-27T07:35:23.273Z,12.37
2016-02-27T07:36:23.291Z,11.88
2016-02-27T07:37:23.294Z,11.6
2016-02-27T07:38:23.280Z,11.21
2016-02-27T07:39:23.283Z,11.21
2016-02-27T07:40:23.287Z,10.93
2016-02-27T07:41:23.289Z,10.83
2016-02-27T07:42:23.308Z,10.54
2016-02-27T07:43:23.153Z,10.45
2016-02-27T07:44:23.313Z,10.45
2016-02-27T07:45:23.315Z,10.16
2016-02-27T07:46:23.333Z,10.45
2016-02-27T07:47:23.352Z,10.26
2016-02-27T07:48:23.339Z,10.35
2016-02-27T07:49:23.342Z,10.17
2016-02-27T07:50:23.344Z,10.26
2016-02-27T07:51:23.363Z,10.26
2016-02-27T07:52:23.366Z,9.78
2016-02-27T07:53:23.368Z,9.68
2016-02-27T07:54:23.371Z,9.97
2016-02-27T07:55:23.373Z,10.17
2016-02-27T07:56:23.376Z,9.68
2016-02-27T07:57:23.441Z,9.48
2016-02-27T07:58:23.412Z,9.48
2016-02-27T07:59:23.400Z,9.78
2016-02-27T08:00:23.403Z,9.97
2016-02-27T08:01:23.406Z,10.07
2016-02-27T08:02:23.408Z,9.68
2016-02-27T08:03:23.426Z,10.07
2016-02-27T08:04:23.445Z,9.78
2016-02-27T08:05:23.432Z,10.08
2016-02-27T08:06:23.450Z,9.58
2016-02-27T08:07:23.453Z,9.39
2016-02-27T08:08:23.471Z,9.59
2016-02-27T08:09:23.473Z,9.59
2016-02-27T08:10:23.476Z,9.49
2016-02-27T08:11:23.478Z,9.69
2016-02-27T08:12:23.481Z,9.5
2016-02-27T08:13:23.500Z,9.4
2016-02-27T08:14:23.502Z,8.92
2016-02-27T08:19:28.079Z,9.4
2016-02-27T08:20:28.097Z,9.4
2016-02-27T08:21:28.100Z,9.59
2016-02-27T08:22:28.103Z,9.59
2016-02-27T08:23:28.121Z,9.59
2016-02-27T08:24:28.123Z,9.5
2016-02-27T08:25:28.142Z,9.5
2016-02-27T08:26:28.160Z,9.69
2016-02-27T08:27:28.163Z,9.59
2016-02-27T08:28:28.181Z,9.5
2016-02-27T08:29:28.199Z,9.4
2016-02-27T08:30:28.217Z,9.3
2016-02-27T08:31:28.221Z,9.69
2016-02-27T08:32:28.223Z,9.79
2016-02-27T08:33:28.242Z,9.78
2016-02-27T08:34:28.259Z,9.98
2016-02-27T08:35:28.262Z,9.88
2016-02-27T08:36:28.281Z,9.78
2016-02-27T08:37:28.299Z,9.98
2016-02-27T08:38:28.318Z,9.98
2016-02-27T08:39:28.336Z,9.59
2016-02-27T08:40:28.339Z,9.5
2016-02-27T08:41:28.357Z,9.59
2016-02-27T08:42:28.359Z,9.59
2016-02-27T08:43:28.378Z,9.5
2016-02-27T08:44:28.428Z,9.59
2016-02-27T08:46:43.683Z,9.59
2016-02-27T08:47:43.700Z,9.5
2016-02-27T08:48:43.719Z,9.5
2016-02-27T08:49:43.737Z,9.4
2016-02-27T08:50:43.756Z,9.59
2016-02-27T08:51:43.774Z,9.5
2016-02-27T08:52:43.777Z,9.6
2016-02-27T08:53:43.811Z,9.01
2016-02-27T08:54:43.798Z,9.11
2016-02-27T08:55:43.816Z,9.21
2016-02-27T08:56:43.835Z,9.01
2016-02-27T08:57:43.852Z,9.21
2016-02-27T08:58:43.871Z,9.01
2016-02-27T08:59:43.873Z,9.31
2016-02-27T09:00:43.892Z,9.01
2016-02-27T09:01:43.910Z,9.11
2016-02-27T09:02:43.913Z,9.11
2016-02-27T09:03:43.948Z,9.11
2016-02-27T09:04:43.965Z,9.11
2016-02-27T09:05:43.968Z,8.83
2016-02-27T09:06:43.986Z,9.11
2016-02-27T09:07:43.989Z,8.73
2016-02-27T09:08:44.007Z,8.83
2016-02-27T09:09:44.009Z,8.83
2016-02-27T09:10:44.044Z,9.01
2016-02-27T09:11:44.047Z,8.92
2016-02-27T09:12:44.065Z,9.02
2016-02-27T09:13:44.084Z,8.63
2016-02-27T09:14:44.086Z,8.92
2016-02-27T09:17:10.641Z,8.25
2016-02-27T09:18:10.675Z,7.87
2016-02-27T09:19:10.661Z,7.77
2016-02-27T09:20:10.680Z,7.29
2016-02-27T09:21:10.683Z,7.19
2016-02-27T09:22:10.701Z,7.2
2016-02-27T09:23:10.719Z,6.41
2016-02-27T09:24:10.738Z,6.42
2016-02-27T09:25:10.740Z,6.04
2016-02-27T09:26:10.760Z,5.94
2016-02-27T09:27:10.777Z,6.13
2016-02-27T09:28:10.779Z,5.45
2016-02-27T09:29:10.799Z,5.65
2016-02-27T09:30:10.816Z,5.65
2016-02-27T09:31:10.835Z,5.26
2016-02-27T09:32:10.837Z,5.55
2016-02-27T09:33:10.871Z,5.74
2016-02-27T09:34:10.873Z,5.75
2016-02-27T09:35:10.876Z,5.65
2016-02-27T09:36:10.895Z,5.84
2016-02-27T09:37:10.914Z,6.13
2016-02-27T09:38:10.948Z,6.04
2016-02-27T09:39:10.934Z,6.04
2016-02-27T09:40:10.953Z,5.94
2016-02-27T09:41:10.971Z,6.04
2016-02-27T09:42:10.989Z,6.04
2016-02-27T09:43:11.008Z,5.84
2016-02-27T09:44:11.011Z,6.04
2016-02-27T09:45:11.045Z,6.42
2016-02-27T09:48:44.318Z,6.81
2016-02-27T09:49:44.305Z,7.1
2016-02-27T09:50:44.308Z,7.1
2016-02-27T09:51:44.310Z,7.09
2016-02-27T09:52:44.329Z,7.19
2016-02-27T09:53:44.331Z,7.68
2016-02-27T09:54:44.350Z,7.87
2016-02-27T09:55:44.353Z,9.12
2016-02-27T09:56:44.355Z,10.85
2016-02-27T09:57:44.374Z,11.61
2016-02-27T09:58:44.377Z,12.08
2016-02-27T09:59:44.394Z,12.66
2016-02-27T10:00:44.397Z,13.33
2016-02-27T10:01:44.415Z,13.23
2016-02-27T10:02:44.418Z,13.13
2016-02-27T10:03:44.265Z,13.71
2016-02-27T10:04:44.423Z,13.61
2016-02-27T10:05:44.443Z,13.71
2016-02-27T10:06:44.445Z,13.71
2016-02-27T10:07:44.462Z,13.51
2016-02-27T10:08:44.451Z,13.61
2016-02-27T10:09:44.468Z,13.23
2016-02-27T10:10:44.471Z,13.71
2016-02-27T10:11:44.489Z,13.9
2016-02-27T10:12:44.492Z,13.9
2016-02-27T10:13:44.495Z,13.81
2016-02-27T10:14:44.513Z,13.71
2016-02-27T10:19:51.589Z,13.81
2016-02-27T10:20:51.608Z,13.43
2016-02-27T10:21:51.610Z,13.13
2016-02-27T10:22:51.613Z,12.66
2016-02-27T10:23:51.630Z,12.27
2016-02-27T10:24:51.633Z,12.37
2016-02-27T10:25:51.668Z,12.18
2016-02-27T10:26:51.655Z,11.79
2016-02-27T10:27:51.657Z,11.9
2016-02-27T10:28:51.660Z,11.41
2016-02-27T10:29:51.663Z,11.51
2016-02-27T10:30:51.665Z,11.12
2016-02-27T10:31:51.684Z,11.03
2016-02-27T10:32:51.702Z,11.22
2016-02-27T10:33:51.689Z,11.13
2016-02-27T10:34:51.692Z,11.03
2016-02-27T10:35:51.710Z,11.03
2016-02-27T10:36:51.712Z,11.12
2016-02-27T10:37:51.715Z,10.84
2016-02-27T10:38:51.734Z,10.94
2016-02-27T10:39:51.736Z,10.94
2016-02-27T10:40:51.739Z,11.03
2016-02-27T10:41:51.742Z,11.32
2016-02-27T10:42:51.745Z,11.03
2016-02-27T10:43:51.762Z,11.03
2016-02-27T10:44:51.781Z,11.13
2016-02-27T10:46:11.989Z,11.03
2016-02-27T10:46:51.770Z,11.22
2016-02-27T10:47:51.789Z,11.13
2016-02-27T10:48:51.792Z,11.61
2016-02-27T10:49:51.795Z,11.61
2016-02-27T10:50:51.813Z,11.61
2016-02-27T10:51:51.816Z,11.52
2016-02-27T10:52:51.818Z,11.42
2016-02-27T10:53:51.836Z,11.32
2016-02-27T10:54:51.839Z,11.33
2016-02-27T10:55:51.842Z,11.33
2016-02-27T10:56:51.845Z,11.42
2016-02-27T10:57:51.863Z,11.9
2016-02-27T10:58:51.866Z,11.71
2016-02-27T10:59:51.869Z,11.8
2016-02-27T11:00:51.887Z,11.8
2016-02-27T11:01:51.890Z,11.71
2016-02-27T11:02:51.892Z,11.61
2016-02-27T11:03:51.895Z,11.42
2016-02-27T11:04:51.898Z,11.61
2016-02-27T11:05:51.900Z,11.42
2016-02-27T11:06:51.918Z,11.51
2016-02-27T11:07:51.921Z,11.41
2016-02-27T11:08:51.924Z,11.71
2016-02-27T11:09:51.926Z,11.51
2016-02-27T11:10:51.945Z,11.8
2016-02-27T11:11:51.947Z,11.51
2016-02-27T11:12:51.950Z,11.32
2016-02-27T11:13:51.953Z,11.61
2016-02-27T11:14:51.971Z,11.51
2016-02-27T11:16:12.195Z,11.6
2016-02-27T11:16:51.992Z,12.38
2016-02-27T11:17:51.979Z,11.51
2016-02-27T11:18:51.997Z,11.6
2016-02-27T11:19:52.000Z,11.7
2016-02-27T11:20:52.003Z,11.7
2016-02-27T11:21:52.006Z,11.88
2016-02-27T11:22:52.025Z,11.69
2016-02-27T11:23:52.027Z,11.79
2016-02-27T11:24:52.045Z,11.51
2016-02-27T11:25:52.033Z,11.69
2016-02-27T11:26:52.050Z,11.69
2016-02-27T11:27:52.053Z,11.6
2016-02-27T11:28:52.055Z,11.79
2016-02-27T11:29:52.059Z,12.18
2016-02-27T11:30:52.061Z,12.27
2016-02-27T11:31:52.080Z,12.28
2016-02-27T11:32:52.083Z,12.28
2016-02-27T11:33:52.084Z,12.27
2016-02-27T11:34:52.087Z,12.18
2016-02-27T11:35:52.106Z,12.18
2016-02-27T11:36:52.093Z,12.18
2016-02-27T11:37:52.112Z,11.79
2016-02-27T11:38:52.130Z,12.28
2016-02-27T11:39:52.132Z,12.38
2016-02-27T11:40:52.135Z,12.28
2016-02-27T11:41:52.137Z,12.47
2016-02-27T11:42:51.984Z,11.89
2016-02-27T11:43:52.159Z,11.99
2016-02-27T11:44:52.161Z,12.18
2016-02-27T11:47:27.685Z,12.47
2016-02-27T11:48:27.703Z,12.28
2016-02-27T11:49:27.737Z,12.47
2016-02-27T11:50:27.708Z,12.18
2016-02-27T11:51:27.711Z,12.66
2016-02-27T11:52:27.714Z,12.57
2016-02-27T11:53:27.717Z,12.28
2016-02-27T11:54:27.720Z,12.18
2016-02-27T11:55:27.800Z,12.38
2016-02-27T11:56:27.741Z,12.37
2016-02-27T11:57:27.743Z,12.18
2016-02-27T11:58:27.761Z,12.28
2016-02-27T11:59:27.764Z,12.28
2016-02-27T12:00:27.766Z,12.18
2016-02-27T12:01:27.770Z,12.18
2016-02-27T12:02:27.788Z,12.18
2016-02-27T12:03:27.775Z,11.51
2016-02-27T12:04:27.809Z,12.28
2016-02-27T12:05:27.796Z,11.89
2016-02-27T12:06:27.815Z,11.79
2016-02-27T12:07:27.801Z,11.79
2016-02-27T12:08:27.820Z,12.28
2016-02-27T12:09:27.823Z,12.18
2016-02-27T12:10:27.826Z,11.79
2016-02-27T12:11:27.828Z,12.28
2016-02-27T12:12:27.846Z,12.18
2016-02-27T12:13:27.833Z,12.28
2016-02-27T12:14:27.851Z,11.79
2016-02-27T12:16:32.075Z,11.79
2016-02-27T12:17:32.079Z,11.89
2016-02-27T12:18:32.081Z,11.89
2016-02-27T12:19:32.084Z,11.89
2016-02-27T12:20:32.086Z,11.79
2016-02-27T12:21:32.105Z,11.7
2016-02-27T12:22:32.092Z,11.6
2016-02-27T12:23:32.126Z,11.7
2016-02-27T12:24:32.113Z,12.18
2016-02-27T12:25:32.131Z,11.6
2016-02-27T12:26:32.119Z,11.6
2016-02-27T12:27:32.136Z,11.7
2016-02-27T12:28:32.139Z,11.7
2016-02-27T12:29:32.142Z,11.7
2016-02-27T12:30:32.144Z,11.6
2016-02-27T12:31:32.163Z,11.99
2016-02-27T12:32:32.166Z,11.6
2016-02-27T12:33:32.184Z,11.79
2016-02-27T12:34:32.171Z,11.6
2016-02-27T12:35:32.174Z,11.6
2016-02-27T12:36:32.177Z,11.89
2016-02-27T12:37:32.194Z,11.6
2016-02-27T12:38:32.197Z,11.7
2016-02-27T12:39:32.232Z,11.79
2016-02-27T12:40:32.202Z,11.89
2016-02-27T12:41:32.221Z,11.79
2016-02-27T12:42:32.224Z,11.51
2016-02-27T12:43:32.226Z,11.79
2016-02-27T12:44:32.229Z,11.7
2016-02-27T12:46:14.812Z,11.6
2016-02-27T12:46:32.250Z,11.89
2016-02-27T12:47:32.253Z,11.7
2016-02-27T12:48:32.099Z,11.79
2016-02-27T12:49:32.273Z,11.79
2016-02-27T12:50:32.261Z,11.7
2016-02-27T12:51:32.295Z,11.79
2016-02-27T12:52:32.282Z,11.7
2016-02-27T12:53:32.300Z,11.79
2016-02-27T12:54:32.287Z,11.79
2016-02-27T12:55:32.289Z,11.79
2016-02-27T12:56:32.308Z,11.99
2016-02-27T12:57:32.311Z,11.51
2016-02-27T12:58:32.330Z,11.51
2016-02-27T12:59:32.316Z,11.7
2016-02-27T13:00:32.335Z,11.79
2016-02-27T13:01:32.338Z,11.99
2016-02-27T13:02:32.355Z,11.79
2016-02-27T13:03:32.343Z,11.7
2016-02-27T13:04:32.345Z,11.79
2016-02-27T13:05:32.349Z,11.79
2016-02-27T13:06:32.366Z,11.41
2016-02-27T13:07:32.369Z,11.51
2016-02-27T13:08:32.372Z,11.41
2016-02-27T13:09:32.390Z,11.41
2016-02-27T13:10:32.408Z,11.41
2016-02-27T13:11:32.410Z,11.51
2016-02-27T13:12:32.413Z,11.6
2016-02-27T13:13:32.416Z,11.6
2016-02-27T13:14:32.404Z,11.41
2016-02-27T13:20:39.607Z,11.6
2016-02-27T13:21:39.610Z,11.41
2016-02-27T13:22:39.612Z,11.31
2016-02-27T13:23:39.631Z,11.31
2016-02-27T13:24:39.634Z,10.35
2016-02-27T13:25:39.652Z,9.48
2016-02-27T13:26:39.639Z,9.49
2016-02-27T13:27:39.658Z,10.27
2016-02-27T13:28:39.661Z,9.97
2016-02-27T13:29:39.663Z,10.64
2016-02-27T13:30:39.666Z,10.84
2016-02-27T13:31:39.683Z,10.83
2016-02-27T13:32:39.686Z,10.35
2016-02-27T13:33:39.688Z,10.16
2016-02-27T13:34:39.707Z,10.46
2016-02-27T13:35:39.708Z,10.06
2016-02-27T13:36:39.697Z,10.46
2016-02-27T13:37:39.685Z,10.55
2016-02-27T13:38:39.689Z,10.44
2016-02-27T13:39:39.678Z,11.22
2016-02-27T13:40:39.669Z,10.93
2016-02-27T13:41:39.666Z,11.03
2016-02-27T13:42:39.664Z,10.93